createdAt,value
2018-11-20T00:00:59.325Z,24.83
2018-11-20T00:04:25.873Z,29.73
2018-11-20T00:07:50.117Z,26.83
2018-11-20T00:11:07.217Z,25.50
2018-11-20T00:14:25.271Z,25.73
2018-11-20T00:17:52.179Z,26.80
2018-11-20T00:21:10.569Z,28.60
2018-11-20T00:24:22.498Z,29.70
2018-11-20T00:27:34.465Z,29.47
2018-11-20T00:30:46.215Z,28.67
2018-11-20T00:34:01.036Z,27.20
2018-11-20T00:37:10.108Z,28.53
2018-11-20T00:40:15.358Z,28.63
2018-11-20T00:43:33.506Z,32.73
2018-11-20T00:46:40.847Z,30.40
2018-11-20T00:49:50.462Z,32.03
2018-11-20T00:53:14.244Z,31.20
2018-11-20T00:56:52.477Z,33.77
2018-11-20T00:59:56.227Z,30.87
2018-11-20T01:03:05.316Z,30.10
2018-11-20T01:06:32.864Z,30.80
2018-11-20T01:09:57.881Z,29.97
2018-11-20T01:13:05.842Z,27.17
2018-11-20T01:16:13.165Z,27.13
2018-11-20T01:19:27.958Z,27.97
2018-11-20T01:22:39.871Z,29.93
2018-11-20T01:25:54.911Z,31.03
2018-11-20T01:29:06.015Z,32.47
2018-11-20T01:32:13.184Z,34.73
2018-11-20T01:35:19.933Z,36.97
2018-11-20T01:38:25.964Z,37.23
2018-11-20T01:41:43.361Z,37.13
2018-11-20T01:45:04.034Z,40.10
2018-11-20T01:48:12.779Z,38.17
2018-11-20T01:51:20.320Z,37.70
2018-11-20T01:54:34.907Z,40.00
2018-11-20T01:57:36.981Z,38.77
2018-11-20T02:00:44.611Z,38.07
2018-11-20T02:03:53.342Z,39.37
2018-11-20T02:07:04.501Z,37.00
2018-11-20T02:10:22.224Z,33.20
2018-11-20T02:14:05.087Z,36.40
2018-11-20T02:17:28.681Z,35.90
2018-11-20T02:20:32.512Z,37.27
2018-11-20T02:23:33.002Z,32.80
2018-11-20T02:26:40.462Z,33.93
2018-11-20T02:29:48.470Z,30.33
2018-11-20T02:33:06.571Z,35.37
2018-11-20T02:36:12.716Z,36.57
2018-11-20T02:39:26.705Z,34.23
2018-11-20T02:42:29.321Z,33.00
2018-11-20T02:45:47.044Z,33.37
2018-11-20T02:49:01.665Z,34.93
2018-11-20T02:52:12.782Z,34.23
2018-11-20T02:55:36.591Z,35.63
2018-11-20T02:58:43.818Z,41.10
2018-11-20T03:02:11.678Z,39.87
2018-11-20T03:05:38.690Z,58.23
2018-11-20T03:08:46.534Z,46.73
2018-11-20T03:11:54.163Z,47.73
2018-11-20T03:15:03.463Z,46.03
2018-11-20T03:18:08.755Z,42.43
2018-11-20T03:21:17.675Z,43.67
2018-11-20T03:24:26.346Z,44.77
2018-11-20T03:27:37.718Z,38.03
2018-11-20T03:31:15.370Z,42.13
2018-11-20T03:34:25.551Z,36.13
2018-11-20T03:37:34.732Z,41.50
2018-11-20T03:40:43.171Z,79.83
2018-11-20T03:43:50.176Z,45.77
2018-11-20T03:47:07.528Z,39.93
2018-11-20T03:50:15.011Z,36.97
2018-11-20T03:53:15.427Z,43.37
2018-11-20T03:56:22.687Z,38.57
2018-11-20T03:59:30.600Z,45.43
2018-11-20T04:02:39.599Z,60.57
2018-11-20T04:05:47.066Z,41.73
2018-11-20T04:09:02.580Z,35.30
2018-11-20T04:12:14.265Z,35.20
2018-11-20T04:15:28.491Z,37.77
2018-11-20T04:18:42.656Z,45.07
2018-11-20T04:21:41.683Z,40.50
2018-11-20T04:25:02.516Z,41.30
2018-11-20T04:28:15.462Z,26.67
2018-11-20T04:31:59.286Z,32.43
2018-11-20T04:35:09.437Z,33.57
2018-11-20T04:38:11.658Z,36.33
2018-11-20T04:41:29.335Z,39.20
2018-11-20T04:44:51.872Z,45.40
2018-11-20T04:47:59.131Z,36.03
2018-11-20T04:51:13.526Z,33.27
2018-11-20T04:54:40.811Z,36.23
2018-11-20T04:57:49.365Z,36.67
2018-11-20T05:00:56.937Z,38.30
2018-11-20T05:04:14.813Z,40.53
2018-11-20T05:07:15.998Z,36.87
2018-11-20T05:10:25.248Z,35.17
2018-11-20T05:13:38.306Z,33.00
2018-11-20T05:16:47.311Z,34.33
2018-11-20T05:20:01.581Z,29.63
2018-11-20T05:23:06.048Z,32.30
2018-11-20T05:26:07.478Z,40.23
2018-11-20T05:29:25.278Z,44.50
2018-11-20T05:32:33.820Z,47.87
2018-11-20T05:35:41.189Z,76.87
2018-11-20T05:38:59.192Z,54.03
2018-11-20T05:42:25.990Z,50.33
2018-11-20T05:45:33.620Z,45.17
2018-11-20T05:48:41.181Z,52.30
2018-11-20T05:51:49.310Z,58.77
2018-11-20T05:54:48.487Z,67.87
2018-11-20T05:57:49.630Z,70.83
2018-11-20T06:00:58.535Z,63.13
2018-11-20T06:04:13.938Z,159.93
2018-11-20T06:07:25.695Z,101.97
2018-11-20T06:10:33.225Z,186.93
2018-11-20T06:13:44.817Z,92.23
2018-11-20T06:17:02.632Z,72.17
2018-11-20T06:20:10.038Z,86.57
2018-11-20T06:23:17.743Z,82.73
2018-11-20T06:26:26.503Z,57.87
2018-11-20T06:29:34.053Z,108.10
2018-11-20T06:32:43.928Z,58.63
2018-11-20T06:35:46.561Z,50.73
2018-11-20T06:38:53.234Z,34.17
2018-11-20T06:42:04.931Z,41.73
2018-11-20T06:45:12.721Z,46.90
2018-11-20T06:48:27.254Z,36.30
2018-11-20T06:51:34.594Z,33.10
2018-11-20T06:54:42.750Z,47.70
2018-11-20T06:57:57.698Z,47.00
2018-11-20T07:01:05.879Z,57.17
2018-11-20T07:04:22.368Z,47.53
2018-11-20T07:07:29.830Z,55.43
2018-11-20T07:10:37.557Z,72.83
2018-11-20T07:13:47.240Z,51.90
2018-11-20T07:17:03.182Z,51.67
2018-11-20T07:20:10.557Z,71.00
2018-11-20T07:23:31.314Z,72.87
2018-11-20T07:26:48.740Z,57.27
2018-11-20T07:30:00.313Z,46.80
2018-11-20T07:33:05.642Z,41.27
2018-11-20T07:36:13.609Z,53.23
2018-11-20T07:39:25.437Z,52.57
2018-11-20T07:42:37.172Z,51.43
2018-11-20T07:46:00.839Z,48.13
2018-11-20T07:49:10.212Z,47.00
2018-11-20T07:52:18.693Z,50.37
2018-11-20T07:55:27.745Z,68.77
2018-11-20T07:58:42.992Z,60.13
2018-11-20T08:01:55.400Z,66.03
2018-11-20T08:04:54.530Z,67.67
2018-11-20T08:08:08.557Z,130.80
2018-11-20T08:11:16.461Z,79.57
2018-11-20T08:14:25.584Z,61.83
2018-11-20T08:17:34.549Z,60.00
2018-11-20T08:20:54.778Z,59.20
2018-11-20T08:24:03.736Z,66.77
2018-11-20T08:27:24.668Z,66.23
2018-11-20T08:30:33.812Z,73.63
2018-11-20T08:34:00.220Z,77.90
2018-11-20T08:37:08.040Z,67.03
2018-11-20T08:40:16.902Z,55.47
2018-11-20T08:43:31.784Z,83.60
2018-11-20T08:46:31.926Z,65.57
2018-11-20T08:49:39.655Z,48.77
2018-11-20T08:52:47.333Z,42.90
2018-11-20T08:55:54.530Z,50.07
2018-11-20T08:59:01.875Z,72.63
2018-11-20T09:02:10.961Z,131.83
2018-11-20T09:05:19.389Z,94.17
2018-11-20T09:08:39.696Z,118.33
2018-11-20T09:12:06.722Z,89.83
2018-11-20T09:15:27.692Z,175.67
2018-11-20T09:18:35.062Z,97.50
2018-11-20T09:21:47.071Z,93.40
2018-11-20T09:24:51.372Z,96.37
2018-11-20T09:28:02.852Z,109.40
2018-11-20T09:31:11.549Z,100.57
2018-11-20T09:34:23.035Z,121.70
2018-11-20T09:37:40.551Z,129.73
2018-11-20T09:40:55.643Z,135.17
2018-11-20T09:44:00.961Z,103.60
2018-11-20T09:47:08.766Z,90.53
2018-11-20T09:50:08.341Z,123.43
2018-11-20T09:53:16.241Z,139.27
2018-11-20T09:56:22.960Z,153.37
2018-11-20T09:59:40.337Z,214.87
2018-11-20T10:02:48.078Z,108.23
2018-11-20T10:06:12.261Z,130.37
2018-11-20T10:09:19.556Z,110.43
2018-11-20T10:12:45.852Z,133.50
2018-11-20T10:16:12.681Z,120.27
2018-11-20T10:19:24.466Z,91.20
2018-11-20T10:22:31.827Z,132.93
2018-11-20T10:25:45.674Z,155.10
2018-11-20T10:28:52.540Z,144.27
2018-11-20T10:32:18.976Z,118.90
2018-11-20T10:35:29.076Z,107.17
2018-11-20T10:38:46.219Z,86.73
2018-11-20T10:42:00.568Z,77.87
2018-11-20T10:45:09.007Z,80.83
2018-11-20T10:48:13.304Z,81.90
2018-11-20T10:51:23.663Z,65.57
2018-11-20T10:54:41.212Z,90.93
2018-11-20T10:57:55.982Z,82.60
2018-11-20T11:01:03.441Z,70.47
2018-11-20T11:04:18.188Z,69.27
2018-11-20T11:07:25.690Z,78.83
2018-11-20T11:10:34.391Z,78.77
2018-11-20T11:13:55.304Z,82.80
2018-11-20T11:17:12.473Z,107.00
2018-11-20T11:20:17.506Z,124.23
2018-11-20T11:23:35.500Z,125.37
2018-11-20T11:26:54.580Z,111.57
2018-11-20T11:30:06.346Z,136.80
2018-11-20T11:33:24.269Z,211.60
2018-11-20T11:36:39.120Z,186.13
2018-11-20T11:39:46.550Z,126.63
2018-11-20T11:42:54.232Z,158.57
2018-11-20T11:46:03.514Z,151.30
2018-11-20T11:49:21.602Z,123.20
2018-11-20T11:52:39.148Z,125.40
2018-11-20T11:55:46.854Z,120.67
2018-11-20T11:58:58.486Z,148.77
2018-11-20T12:05:30.366Z,75.30
2018-11-20T12:08:37.592Z,91.43
2018-11-20T12:11:54.937Z,118.60
2018-11-20T12:14:55.512Z,168.17
2018-11-20T12:18:19.433Z,144.97
2018-11-20T12:21:40.661Z,167.53
2018-11-20T12:24:49.363Z,186.93
2018-11-20T12:27:51.613Z,146.93
2018-11-20T12:30:59.075Z,137.07
2018-11-20T12:35:13.618Z,156.10
2018-11-20T12:38:21.116Z,148.83
2018-11-20T12:41:28.630Z,123.30
2018-11-20T12:44:36.659Z,108.37
2018-11-20T12:48:03.861Z,128.73
2018-11-20T12:51:09.515Z,103.30
2018-11-20T12:54:20.705Z,104.07
2018-11-20T12:57:27.526Z,119.33
2018-11-20T13:00:47.921Z,129.03
2018-11-20T13:03:54.738Z,99.97
2018-11-20T13:07:08.994Z,135.30
2018-11-20T13:10:29.010Z,151.70
2018-11-20T13:13:39.928Z,118.00
2018-11-20T13:16:50.885Z,121.40
2018-11-20T13:19:40.900Z,122.53
2018-11-20T13:22:33.562Z,154.87
2018-11-20T13:28:10.322Z,174.67
2018-11-20T13:31:09.068Z,183.37
2018-11-20T13:34:07.374Z,189.57
2018-11-20T13:36:57.165Z,191.33
2018-11-20T13:39:58.704Z,189.83
2018-11-20T13:43:01.780Z,166.63
2018-11-20T13:45:54.509Z,165.53
2018-11-20T13:48:42.860Z,174.27
2018-11-20T13:51:31.842Z,178.33
2018-11-20T13:54:32.385Z,190.00
2018-11-20T13:57:40.562Z,183.17
2018-11-20T14:00:31.087Z,183.93
2018-11-20T14:03:31.403Z,194.87
2018-11-20T14:06:23.842Z,181.63
2018-11-20T14:09:13.623Z,206.97
2018-11-20T14:12:14.857Z,278.77
2018-11-20T14:15:03.314Z,302.43
2018-11-20T14:17:51.844Z,308.17
2018-11-20T14:20:39.848Z,310.23
2018-11-20T14:23:35.183Z,337.57
2018-11-20T14:26:30.766Z,295.07
2018-11-20T14:29:18.653Z,337.00
2018-11-20T14:32:08.164Z,170.40
2018-11-20T14:34:48.338Z,166.80
2018-11-20T14:37:38.028Z,140.37
2018-11-20T14:40:39.698Z,129.37
2018-11-20T14:43:34.867Z,122.97
2018-11-20T14:46:24.472Z,125.77
2018-11-20T14:49:25.970Z,135.40
2018-11-20T14:52:19.716Z,133.90
2018-11-20T14:57:38.944Z,143.60
2018-11-20T15:00:30.677Z,135.13
2018-11-20T15:03:19.316Z,141.40
2018-11-20T15:06:08.636Z,170.13
2018-11-20T15:08:56.738Z,176.53
2018-11-20T15:12:04.283Z,226.27
2018-11-20T15:14:56.592Z,237.70
2018-11-20T15:17:58.666Z,242.63
2018-11-20T15:20:46.981Z,263.27
2018-11-20T15:23:45.535Z,291.53
2018-11-20T15:26:36.685Z,317.20
2018-11-20T15:29:26.309Z,159.83
2018-11-20T15:32:25.119Z,172.63
2018-11-20T15:35:29.652Z,166.23
2018-11-20T15:38:27.934Z,157.23
2018-11-20T15:41:24.224Z,208.90
2018-11-20T15:44:12.499Z,233.20
2018-11-20T15:47:17.217Z,224.77
2018-11-20T15:50:09.364Z,257.97
2018-11-20T15:52:57.839Z,211.50
2018-11-20T15:55:46.075Z,206.97
2018-11-20T15:58:34.772Z,189.30
2018-11-20T16:01:23.570Z,236.30
2018-11-20T16:04:11.763Z,213.77
2018-11-20T16:07:04.055Z,177.03
2018-11-20T16:09:51.988Z,142.97
2018-11-20T16:12:42.915Z,209.63
2018-11-20T16:15:31.143Z,126.50
2018-11-20T16:18:32.949Z,181.77
2018-11-20T16:21:31.202Z,186.73
2018-11-20T16:24:20.794Z,135.03
2018-11-20T16:27:16.098Z,163.53
2018-11-20T16:30:04.588Z,170.40
2018-11-20T16:33:00.497Z,161.73
2018-11-20T16:36:03.096Z,290.03
2018-11-20T16:39:06.733Z,238.40
2018-11-20T16:41:54.799Z,233.03
2018-11-20T16:44:39.587Z,189.50
2018-11-20T16:47:32.046Z,161.13
2018-11-20T16:50:17.758Z,176.87
2018-11-20T16:53:15.330Z,151.53
2018-11-20T16:55:56.014Z,141.03
2018-11-20T16:58:54.592Z,180.70
2018-11-20T17:01:48.328Z,222.43
2018-11-20T17:04:56.397Z,187.30
2018-11-20T17:07:56.304Z,195.30
2018-11-20T17:10:54.721Z,225.57
2018-11-20T17:13:44.354Z,264.77
2018-11-20T17:16:52.311Z,304.80
2018-11-20T17:20:00.219Z,360.30
2018-11-20T17:22:48.791Z,212.43
2018-11-20T17:25:36.771Z,188.30
2018-11-20T17:28:25.091Z,153.73
2018-11-20T17:31:19.841Z,151.97
2018-11-20T17:34:12.376Z,156.97
2018-11-20T17:37:11.128Z,172.87
2018-11-20T17:40:03.640Z,237.63
2018-11-20T17:42:59.177Z,302.67
2018-11-20T17:46:06.774Z,318.30
2018-11-20T17:48:56.458Z,318.77
2018-11-20T17:51:58.277Z,347.20
2018-11-20T17:54:53.910Z,307.30
2018-11-20T17:57:58.852Z,285.77
2018-11-20T18:00:57.373Z,277.07
2018-11-20T18:04:04.735Z,286.03
2018-11-20T18:06:54.376Z,262.03
2018-11-20T18:09:58.927Z,235.07
2018-11-20T18:12:58.143Z,242.03
2018-11-20T18:15:53.996Z,265.10
2018-11-20T18:18:42.018Z,311.70
2018-11-20T18:21:37.535Z,325.93
2018-11-20T18:24:38.698Z,352.63
2018-11-20T18:27:43.427Z,339.83
2018-11-20T18:30:42.390Z,241.67
2018-11-20T18:33:39.833Z,261.73
2018-11-20T18:36:25.467Z,249.10
2018-11-20T18:39:23.855Z,316.00
2018-11-20T18:42:06.980Z,299.43
2018-11-20T18:44:55.350Z,312.93
2018-11-20T18:47:44.981Z,355.43
2018-11-20T18:50:43.593Z,423.03
2018-11-20T18:53:37.437Z,331.40
2018-11-20T18:56:36.811Z,294.87
2018-11-20T18:59:26.740Z,282.83
2018-11-20T19:02:16.014Z,241.47
2018-11-20T19:05:16.841Z,217.60
2018-11-20T19:08:13.414Z,169.83
2018-11-20T19:11:01.399Z,183.43
2018-11-20T19:13:51.083Z,188.93
2018-11-20T19:16:38.957Z,194.43
2018-11-20T19:19:37.886Z,205.13
2018-11-20T19:22:26.915Z,215.57
2018-11-20T19:25:16.632Z,201.23
2018-11-20T19:28:04.637Z,187.83
2018-11-20T19:30:50.484Z,184.00
2018-11-20T19:33:39.165Z,236.60
2018-11-20T19:36:36.679Z,206.60
2018-11-20T19:39:42.104Z,222.77
2018-11-20T19:42:46.668Z,302.47
2018-11-20T19:45:42.403Z,274.17
2018-11-20T19:48:30.780Z,284.07
2018-11-20T19:51:19.192Z,277.17
2018-11-20T19:54:07.435Z,264.53
2018-11-20T19:56:55.619Z,264.90
2018-11-20T19:59:45.743Z,246.30
2018-11-20T20:02:36.594Z,252.33
2018-11-20T20:05:27.879Z,251.40
2018-11-20T20:08:29.882Z,246.07
2018-11-20T20:11:28.704Z,234.53
2018-11-20T20:14:18.205Z,259.87
2018-11-20T20:17:07.076Z,241.47
2018-11-20T20:20:01.225Z,256.47
2018-11-20T20:22:42.261Z,236.30
2018-11-20T20:25:46.971Z,238.70
2018-11-20T20:28:36.703Z,224.47
2018-11-20T20:31:30.507Z,244.53
2018-11-20T20:34:23.183Z,243.13
2018-11-20T20:37:31.403Z,221.30
2018-11-20T20:40:24.115Z,253.07
2018-11-20T20:43:16.734Z,259.30
2018-11-20T20:46:11.985Z,255.93
2018-11-20T20:49:16.377Z,254.23
2018-11-20T20:52:04.445Z,263.97
2018-11-20T20:55:05.996Z,257.07
2018-11-20T20:57:49.912Z,274.33
2018-11-20T21:00:56.578Z,299.43
2018-11-20T21:04:05.291Z,273.27
2018-11-20T21:07:31.326Z,302.70
2018-11-20T21:10:38.502Z,302.37
2018-11-20T21:13:52.958Z,293.67
2018-11-20T21:17:16.771Z,296.17
2018-11-20T21:20:30.342Z,311.63
2018-11-20T21:23:40.789Z,320.77
2018-11-20T21:26:58.204Z,311.63
2018-11-20T21:30:11.749Z,244.33
2018-11-20T21:33:28.792Z,205.77
2018-11-20T21:36:35.106Z,238.97
2018-11-20T21:39:53.612Z,219.60
2018-11-20T21:43:08.458Z,254.40
2018-11-20T21:46:28.165Z,225.23
2018-11-20T21:49:43.739Z,215.37
2018-11-20T21:52:57.552Z,225.07
2018-11-20T21:56:04.759Z,238.83
2018-11-20T21:59:20.186Z,266.97
2018-11-20T22:02:27.034Z,227.03
2018-11-20T22:05:35.330Z,240.40
2018-11-20T22:08:45.980Z,249.60
2018-11-20T22:12:09.279Z,246.77
2018-11-20T22:15:29.712Z,217.23
2018-11-20T22:18:47.110Z,205.93
2018-11-20T22:21:58.028Z,176.53
2018-11-20T22:25:14.908Z,207.53
2018-11-20T22:28:30.026Z,182.20
2018-11-20T22:31:44.360Z,200.30
2018-11-20T22:34:51.256Z,194.00
2018-11-20T22:38:14.579Z,198.67
2018-11-20T22:41:40.630Z,197.80
2018-11-20T22:44:57.794Z,198.30
2018-11-20T22:48:12.983Z,181.70
2018-11-20T22:51:20.011Z,184.60
2018-11-20T22:54:30.774Z,191.07
2018-11-20T22:57:38.396Z,181.13
2018-11-20T23:00:34.924Z,184.93
2018-11-20T23:03:41.815Z,171.87
2018-11-20T23:06:51.794Z,169.17
2018-11-20T23:09:40.376Z,181.53
2018-11-20T23:12:29.336Z,191.93
2018-11-20T23:15:18.563Z,197.53
2018-11-20T23:18:07.618Z,204.77
2018-11-20T23:20:56.883Z,204.90
2018-11-20T23:23:45.586Z,194.03
2018-11-20T23:26:34.453Z,189.97
2018-11-20T23:29:23.462Z,174.47
2018-11-20T23:32:12.702Z,174.80
2018-11-20T23:35:01.732Z,189.27
2018-11-20T23:37:50.635Z,207.90
2018-11-20T23:40:39.639Z,218.33
2018-11-20T23:43:28.499Z,186.83
2018-11-20T23:46:17.596Z,166.47
2018-11-20T23:49:06.480Z,147.80
2018-11-20T23:51:55.710Z,135.43
2018-11-20T23:54:44.749Z,130.80
2018-11-20T23:57:34.338Z,140.27
